sensor_id;sensor_type;location;lat;lon;timestamp;P1;durP1;ratioP1;P2;durP2;ratioP2
31692;SDS011;37436;53.230;6.614;2023-06-24T00:00:13;13.35;;;9.00;;
31692;SDS011;37436;53.230;6.614;2023-06-24T00:02:45;16.23;;;8.63;;
31692;SDS011;37436;53.230;6.614;2023-06-24T00:05:11;17.33;;;8.65;;
31692;SDS011;37436;53.230;6.614;2023-06-24T00:07:42;16.92;;;8.30;;
31692;SDS011;37436;53.230;6.614;2023-06-24T00:10:18;17.73;;;9.85;;
31692;SDS011;37436;53.230;6.614;2023-06-24T00:12:44;21.00;;;9.00;;
31692;SDS011;37436;53.230;6.614;2023-06-24T00:15:11;17.80;;;10.07;;
31692;SDS011;37436;53.230;6.614;2023-06-24T00:17:44;19.15;;;9.90;;
31692;SDS011;37436;53.230;6.614;2023-06-24T00:20:13;22.88;;;10.25;;
31692;SDS011;37436;53.230;6.614;2023-06-24T00:22:39;20.80;;;10.38;;
31692;SDS011;37436;53.230;6.614;2023-06-24T00:25:10;15.93;;;9.90;;
31692;SDS011;37436;53.230;6.614;2023-06-24T00:27:36;19.98;;;11.30;;
31692;SDS011;37436;53.230;6.614;2023-06-24T00:30:02;20.77;;;10.35;;
31692;SDS011;37436;53.230;6.614;2023-06-24T00:32:29;21.52;;;11.85;;
31692;SDS011;37436;53.230;6.614;2023-06-24T00:34:55;21.60;;;11.65;;
31692;SDS011;37436;53.230;6.614;2023-06-24T00:37:32;24.50;;;13.32;;
31692;SDS011;37436;53.230;6.614;2023-06-24T00:39:58;22.38;;;12.20;;
31692;SDS011;37436;53.230;6.614;2023-06-24T00:42:25;21.55;;;12.32;;
31692;SDS011;37436;53.230;6.614;2023-06-24T00:44:51;21.75;;;12.27;;
31692;SDS011;37436;53.230;6.614;2023-06-24T00:47:17;24.13;;;12.52;;
31692;SDS011;37436;53.230;6.614;2023-06-24T00:49:43;20.80;;;10.98;;
31692;SDS011;37436;53.230;6.614;2023-06-24T00:52:13;21.83;;;12.05;;
31692;SDS011;37436;53.230;6.614;2023-06-24T00:54:43;19.83;;;11.05;;
31692;SDS011;37436;53.230;6.614;2023-06-24T00:57:12;22.55;;;11.82;;
31692;SDS011;37436;53.230;6.614;2023-06-24T00:59:39;21.90;;;12.25;;
31692;SDS011;37436;53.230;6.614;2023-06-24T01:02:08;24.13;;;12.98;;
31692;SDS011;37436;53.230;6.614;2023-06-24T01:07:29;22.13;;;12.38;;
31692;SDS011;37436;53.230;6.614;2023-06-24T01:09:56;22.33;;;11.57;;
31692;SDS011;37436;53.230;6.614;2023-06-24T01:12:25;21.05;;;11.80;;
31692;SDS011;37436;53.230;6.614;2023-06-24T01:14:52;23.80;;;12.35;;
31692;SDS011;37436;53.230;6.614;2023-06-24T01:17:30;22.90;;;12.60;;
31692;SDS011;37436;53.230;6.614;2023-06-24T01:22:31;22.42;;;11.60;;
31692;SDS011;37436;53.230;6.614;2023-06-24T01:27:42;19.95;;;11.15;;
31692;SDS011;37436;53.230;6.614;2023-06-24T01:32:43;23.55;;;11.30;;
31692;SDS011;37436;53.230;6.614;2023-06-24T01:35:12;21.98;;;11.27;;
31692;SDS011;37436;53.230;6.614;2023-06-24T01:37:42;20.15;;;11.32;;
31692;SDS011;37436;53.230;6.614;2023-06-24T01:40:27;18.85;;;11.05;;
31692;SDS011;37436;53.230;6.614;2023-06-24T01:42:55;22.75;;;12.45;;
31692;SDS011;37436;53.230;6.614;2023-06-24T01:45:24;20.55;;;11.50;;
31692;SDS011;37436;53.230;6.614;2023-06-24T01:47:54;24.08;;;12.88;;
31692;SDS011;37436;53.230;6.614;2023-06-24T01:50:31;21.63;;;11.68;;
31692;SDS011;37436;53.230;6.614;2023-06-24T01:52:58;21.63;;;12.52;;
31692;SDS011;37436;53.230;6.614;2023-06-24T01:55:26;25.75;;;12.02;;
31692;SDS011;37436;53.230;6.614;2023-06-24T01:57:54;25.58;;;13.23;;
31692;SDS011;37436;53.230;6.614;2023-06-24T02:00:27;26.90;;;13.48;;
31692;SDS011;37436;53.230;6.614;2023-06-24T02:02:54;26.75;;;13.82;;
31692;SDS011;37436;53.230;6.614;2023-06-24T02:05:20;29.27;;;13.90;;
31692;SDS011;37436;53.230;6.614;2023-06-24T02:07:53;27.48;;;12.70;;
31692;SDS011;37436;53.230;6.614;2023-06-24T02:10:20;21.13;;;12.68;;
31692;SDS011;37436;53.230;6.614;2023-06-24T02:12:56;26.80;;;14.05;;
31692;SDS011;37436;53.230;6.614;2023-06-24T02:15:25;29.75;;;14.80;;
31692;SDS011;37436;53.230;6.614;2023-06-24T02:17:52;23.65;;;13.20;;
31692;SDS011;37436;53.230;6.614;2023-06-24T02:20:21;27.40;;;14.38;;
31692;SDS011;37436;53.230;6.614;2023-06-24T02:22:51;24.52;;;14.30;;
31692;SDS011;37436;53.230;6.614;2023-06-24T02:25:18;27.45;;;13.82;;
31692;SDS011;37436;53.230;6.614;2023-06-24T02:27:44;30.10;;;14.40;;
31692;SDS011;37436;53.230;6.614;2023-06-24T02:30:14;23.00;;;13.63;;
31692;SDS011;37436;53.230;6.614;2023-06-24T02:32:44;30.40;;;13.82;;
31692;SDS011;37436;53.230;6.614;2023-06-24T02:35:10;29.15;;;14.25;;
31692;SDS011;37436;53.230;6.614;2023-06-24T02:37:39;28.00;;;14.88;;
31692;SDS011;37436;53.230;6.614;2023-06-24T02:40:06;27.83;;;13.15;;
31692;SDS011;37436;53.230;6.614;2023-06-24T02:42:39;31.67;;;14.10;;
31692;SDS011;37436;53.230;6.614;2023-06-24T02:45:06;24.95;;;13.18;;
31692;SDS011;37436;53.230;6.614;2023-06-24T02:47:33;25.30;;;12.98;;
31692;SDS011;37436;53.230;6.614;2023-06-24T02:50:00;27.38;;;13.48;;
31692;SDS011;37436;53.230;6.614;2023-06-24T02:52:50;29.10;;;15.25;;
31692;SDS011;37436;53.230;6.614;2023-06-24T02:55:19;32.92;;;14.48;;
31692;SDS011;37436;53.230;6.614;2023-06-24T02:57:47;27.80;;;14.45;;
31692;SDS011;37436;53.230;6.614;2023-06-24T03:00:16;23.40;;;13.25;;
31692;SDS011;37436;53.230;6.614;2023-06-24T03:02:46;32.72;;;16.42;;
31692;SDS011;37436;53.230;6.614;2023-06-24T03:05:16;29.35;;;14.77;;
31692;SDS011;37436;53.230;6.614;2023-06-24T03:07:43;28.45;;;14.65;;
31692;SDS011;37436;53.230;6.614;2023-06-24T03:10:10;32.42;;;14.50;;
31692;SDS011;37436;53.230;6.614;2023-06-24T03:12:40;27.85;;;14.73;;
31692;SDS011;37436;53.230;6.614;2023-06-24T03:15:06;22.17;;;13.65;;
31692;SDS011;37436;53.230;6.614;2023-06-24T03:17:34;29.25;;;14.32;;
31692;SDS011;37436;53.230;6.614;2023-06-24T03:20:00;31.42;;;14.20;;
31692;SDS011;37436;53.230;6.614;2023-06-24T03:22:27;32.72;;;16.10;;
31692;SDS011;37436;53.230;6.614;2023-06-24T03:24:56;31.08;;;15.52;;
31692;SDS011;37436;53.230;6.614;2023-06-24T03:27:22;26.92;;;14.30;;
31692;SDS011;37436;53.230;6.614;2023-06-24T03:29:49;25.65;;;14.75;;
31692;SDS011;37436;53.230;6.614;2023-06-24T03:32:15;32.40;;;13.98;;
31692;SDS011;37436;53.230;6.614;2023-06-24T03:34:44;30.40;;;14.45;;
31692;SDS011;37436;53.230;6.614;2023-06-24T03:37:10;29.42;;;14.68;;
31692;SDS011;37436;53.230;6.614;2023-06-24T03:39:36;30.50;;;13.70;;
31692;SDS011;37436;53.230;6.614;2023-06-24T03:42:03;25.88;;;13.88;;
31692;SDS011;37436;53.230;6.614;2023-06-24T03:47:23;22.63;;;12.48;;
31692;SDS011;37436;53.230;6.614;2023-06-24T03:50:12;26.98;;;12.55;;
31692;SDS011;37436;53.230;6.614;2023-06-24T03:52:39;28.25;;;13.00;;
31692;SDS011;37436;53.230;6.614;2023-06-24T03:55:05;25.30;;;12.77;;
31692;SDS011;37436;53.230;6.614;2023-06-24T03:57:31;23.23;;;11.93;;
31692;SDS011;37436;53.230;6.614;2023-06-24T03:59:57;27.08;;;13.30;;
31692;SDS011;37436;53.230;6.614;2023-06-24T04:02:24;24.83;;;12.00;;
31692;SDS011;37436;53.230;6.614;2023-06-24T04:04:51;21.45;;;12.25;;
31692;SDS011;37436;53.230;6.614;2023-06-24T04:07:21;21.98;;;12.18;;
31692;SDS011;37436;53.230;6.614;2023-06-24T04:09:55;22.42;;;12.60;;
31692;SDS011;37436;53.230;6.614;2023-06-24T04:12:22;21.98;;;12.75;;
31692;SDS011;37436;53.230;6.614;2023-06-24T04:14:51;25.38;;;12.52;;
31692;SDS011;37436;53.230;6.614;2023-06-24T04:17:17;23.73;;;12.80;;
31692;SDS011;37436;53.230;6.614;2023-06-24T04:19:44;28.98;;;13.50;;
31692;SDS011;37436;53.230;6.614;2023-06-24T04:22:10;25.58;;;13.70;;
31692;SDS011;37436;53.230;6.614;2023-06-24T04:24:45;30.08;;;14.65;;
31692;SDS011;37436;53.230;6.614;2023-06-24T04:27:11;31.17;;;17.52;;
31692;SDS011;37436;53.230;6.614;2023-06-24T04:29:40;32.25;;;16.55;;
31692;SDS011;37436;53.230;6.614;2023-06-24T04:32:07;31.50;;;16.60;;
31692;SDS011;37436;53.230;6.614;2023-06-24T04:34:33;30.88;;;16.58;;
31692;SDS011;37436;53.230;6.614;2023-06-24T04:36:59;26.75;;;15.43;;
31692;SDS011;37436;53.230;6.614;2023-06-24T04:39:25;32.92;;;15.82;;
31692;SDS011;37436;53.230;6.614;2023-06-24T04:41:53;25.63;;;13.85;;
31692;SDS011;37436;53.230;6.614;2023-06-24T04:44:19;24.48;;;14.15;;
31692;SDS011;37436;53.230;6.614;2023-06-24T04:46:45;31.73;;;14.35;;
31692;SDS011;37436;53.230;6.614;2023-06-24T04:49:20;24.23;;;12.85;;
31692;SDS011;37436;53.230;6.614;2023-06-24T04:51:53;21.83;;;13.02;;
31692;SDS011;37436;53.230;6.614;2023-06-24T04:54:19;32.13;;;13.18;;
31692;SDS011;37436;53.230;6.614;2023-06-24T04:56:51;23.05;;;12.43;;
31692;SDS011;37436;53.230;6.614;2023-06-24T04:59:33;25.77;;;13.35;;
31692;SDS011;37436;53.230;6.614;2023-06-24T05:02:00;22.55;;;12.55;;
31692;SDS011;37436;53.230;6.614;2023-06-24T05:04:30;25.05;;;13.05;;
31692;SDS011;37436;53.230;6.614;2023-06-24T05:06:56;23.98;;;13.55;;
31692;SDS011;37436;53.230;6.614;2023-06-24T05:09:22;26.38;;;12.60;;
31692;SDS011;37436;53.230;6.614;2023-06-24T05:11:48;21.90;;;12.20;;
31692;SDS011;37436;53.230;6.614;2023-06-24T05:14:14;27.10;;;12.25;;
31692;SDS011;37436;53.230;6.614;2023-06-24T05:16:40;24.08;;;11.57;;
31692;SDS011;37436;53.230;6.614;2023-06-24T05:19:16;16.88;;;10.95;;
31692;SDS011;37436;53.230;6.614;2023-06-24T05:21:42;22.20;;;11.55;;
31692;SDS011;37436;53.230;6.614;2023-06-24T05:24:10;24.45;;;10.40;;
31692;SDS011;37436;53.230;6.614;2023-06-24T05:26:36;18.20;;;9.70;;
31692;SDS011;37436;53.230;6.614;2023-06-24T05:29:04;16.88;;;9.80;;
31692;SDS011;37436;53.230;6.614;2023-06-24T05:31:30;15.52;;;9.60;;
31692;SDS011;37436;53.230;6.614;2023-06-24T05:33:56;16.08;;;9.68;;
31692;SDS011;37436;53.230;6.614;2023-06-24T05:36:22;18.60;;;8.38;;
31692;SDS011;37436;53.230;6.614;2023-06-24T05:38:51;16.50;;;9.63;;
31692;SDS011;37436;53.230;6.614;2023-06-24T05:44:07;14.93;;;8.88;;
31692;SDS011;37436;53.230;6.614;2023-06-24T05:46:37;17.58;;;9.68;;
31692;SDS011;37436;53.230;6.614;2023-06-24T05:49:03;14.27;;;8.35;;
31692;SDS011;37436;53.230;6.614;2023-06-24T05:51:29;18.00;;;7.57;;
31692;SDS011;37436;53.230;6.614;2023-06-24T05:53:55;14.57;;;8.15;;
31692;SDS011;37436;53.230;6.614;2023-06-24T05:56:24;13.95;;;7.78;;
31692;SDS011;37436;53.230;6.614;2023-06-24T05:58:51;13.55;;;7.63;;
31692;SDS011;37436;53.230;6.614;2023-06-24T06:01:17;14.35;;;7.45;;
31692;SDS011;37436;53.230;6.614;2023-06-24T06:03:43;19.42;;;8.45;;
31692;SDS011;37436;53.230;6.614;2023-06-24T06:06:09;16.73;;;8.25;;
31692;SDS011;37436;53.230;6.614;2023-06-24T06:08:44;12.20;;;7.20;;
31692;SDS011;37436;53.230;6.614;2023-06-24T06:11:10;11.43;;;7.78;;
31692;SDS011;37436;53.230;6.614;2023-06-24T06:13:36;12.43;;;7.95;;
31692;SDS011;37436;53.230;6.614;2023-06-24T06:16:03;13.48;;;7.30;;
31692;SDS011;37436;53.230;6.614;2023-06-24T06:18:32;12.23;;;6.53;;
31692;SDS011;37436;53.230;6.614;2023-06-24T06:20:59;11.77;;;7.22;;
31692;SDS011;37436;53.230;6.614;2023-06-24T06:23:26;11.77;;;7.43;;
31692;SDS011;37436;53.230;6.614;2023-06-24T06:25:53;9.95;;;7.10;;
31692;SDS011;37436;53.230;6.614;2023-06-24T06:28:19;12.80;;;7.10;;
31692;SDS011;37436;53.230;6.614;2023-06-24T06:30:45;10.73;;;7.28;;
31692;SDS011;37436;53.230;6.614;2023-06-24T06:33:21;13.98;;;7.53;;
31692;SDS011;37436;53.230;6.614;2023-06-24T06:35:48;15.95;;;7.70;;
31692;SDS011;37436;53.230;6.614;2023-06-24T06:38:14;10.18;;;7.18;;
31692;SDS011;37436;53.230;6.614;2023-06-24T06:40:41;13.88;;;7.30;;
31692;SDS011;37436;53.230;6.614;2023-06-24T06:43:08;10.50;;;6.68;;
31692;SDS011;37436;53.230;6.614;2023-06-24T06:45:37;10.30;;;6.53;;
31692;SDS011;37436;53.230;6.614;2023-06-24T06:48:04;12.57;;;7.90;;
31692;SDS011;37436;53.230;6.614;2023-06-24T06:50:32;12.05;;;7.47;;
31692;SDS011;37436;53.230;6.614;2023-06-24T06:53:05;16.40;;;7.78;;
31692;SDS011;37436;53.230;6.614;2023-06-24T06:55:42;9.07;;;7.20;;
31692;SDS011;37436;53.230;6.614;2023-06-24T06:58:08;12.63;;;7.15;;
31692;SDS011;37436;53.230;6.614;2023-06-24T07:00:38;12.43;;;7.63;;
31692;SDS011;37436;53.230;6.614;2023-06-24T07:03:04;14.65;;;8.27;;
31692;SDS011;37436;53.230;6.614;2023-06-24T07:05:30;12.75;;;7.50;;
31692;SDS011;37436;53.230;6.614;2023-06-24T07:07:56;16.13;;;8.02;;
31692;SDS011;37436;53.230;6.614;2023-06-24T07:10:28;12.38;;;7.07;;
31692;SDS011;37436;53.230;6.614;2023-06-24T07:13:04;15.02;;;7.28;;
31692;SDS011;37436;53.230;6.614;2023-06-24T07:15:30;13.35;;;7.80;;
31692;SDS011;37436;53.230;6.614;2023-06-24T07:17:56;9.95;;;6.85;;
31692;SDS011;37436;53.230;6.614;2023-06-24T07:20:22;22.85;;;8.50;;
31692;SDS011;37436;53.230;6.614;2023-06-24T07:22:48;12.88;;;6.80;;
31692;SDS011;37436;53.230;6.614;2023-06-24T07:25:23;12.05;;;7.80;;
31692;SDS011;37436;53.230;6.614;2023-06-24T07:27:51;13.73;;;7.20;;
31692;SDS011;37436;53.230;6.614;2023-06-24T07:30:23;16.17;;;8.20;;
31692;SDS011;37436;53.230;6.614;2023-06-24T07:32:50;12.40;;;6.85;;
31692;SDS011;37436;53.230;6.614;2023-06-24T07:35:16;12.25;;;7.68;;
31692;SDS011;37436;53.230;6.614;2023-06-24T07:37:44;12.85;;;7.68;;
31692;SDS011;37436;53.230;6.614;2023-06-24T07:40:10;11.55;;;7.75;;
31692;SDS011;37436;53.230;6.614;2023-06-24T07:42:36;12.55;;;7.35;;
31692;SDS011;37436;53.230;6.614;2023-06-24T07:45:02;11.18;;;7.35;;
31692;SDS011;37436;53.230;6.614;2023-06-24T07:47:43;9.82;;;7.13;;
31692;SDS011;37436;53.230;6.614;2023-06-24T07:50:10;9.98;;;6.75;;
31692;SDS011;37436;53.230;6.614;2023-06-24T07:52:36;12.23;;;6.72;;
31692;SDS011;37436;53.230;6.614;2023-06-24T07:55:02;11.23;;;6.97;;
31692;SDS011;37436;53.230;6.614;2023-06-24T07:57:31;8.02;;;6.03;;
31692;SDS011;37436;53.230;6.614;2023-06-24T08:00:01;11.93;;;6.30;;
31692;SDS011;37436;53.230;6.614;2023-06-24T08:02:27;9.52;;;6.15;;
31692;SDS011;37436;53.230;6.614;2023-06-24T08:04:56;9.82;;;6.10;;
31692;SDS011;37436;53.230;6.614;2023-06-24T08:07:26;9.88;;;6.75;;
31692;SDS011;37436;53.230;6.614;2023-06-24T08:09:53;10.70;;;6.35;;
31692;SDS011;37436;53.230;6.614;2023-06-24T08:12:19;11.15;;;5.78;;
31692;SDS011;37436;53.230;6.614;2023-06-24T08:14:45;12.00;;;6.05;;
31692;SDS011;37436;53.230;6.614;2023-06-24T08:17:14;12.45;;;6.35;;
31692;SDS011;37436;53.230;6.614;2023-06-24T08:19:43;12.40;;;5.22;;
31692;SDS011;37436;53.230;6.614;2023-06-24T08:22:09;8.55;;;5.25;;
31692;SDS011;37436;53.230;6.614;2023-06-24T08:24:44;11.25;;;4.55;;
31692;SDS011;37436;53.230;6.614;2023-06-24T08:27:10;9.35;;;5.50;;
31692;SDS011;37436;53.230;6.614;2023-06-24T08:29:36;10.10;;;5.15;;
31692;SDS011;37436;53.230;6.614;2023-06-24T08:32:05;6.80;;;5.13;;
31692;SDS011;37436;53.230;6.614;2023-06-24T08:34:39;9.43;;;5.05;;
31692;SDS011;37436;53.230;6.614;2023-06-24T08:37:08;9.07;;;4.85;;
31692;SDS011;37436;53.230;6.614;2023-06-24T08:39:46;7.78;;;5.07;;
31692;SDS011;37436;53.230;6.614;2023-06-24T08:42:19;6.85;;;4.60;;
31692;SDS011;37436;53.230;6.614;2023-06-24T08:44:45;8.43;;;4.70;;
31692;SDS011;37436;53.230;6.614;2023-06-24T08:47:13;13.57;;;5.07;;
31692;SDS011;37436;53.230;6.614;2023-06-24T08:49:48;7.05;;;4.40;;
31692;SDS011;37436;53.230;6.614;2023-06-24T08:52:42;10.75;;;4.93;;
31692;SDS011;37436;53.230;6.614;2023-06-24T08:55:10;11.63;;;5.32;;
31692;SDS011;37436;53.230;6.614;2023-06-24T08:57:39;8.18;;;4.90;;
31692;SDS011;37436;53.230;6.614;2023-06-24T09:00:09;9.82;;;5.03;;
31692;SDS011;37436;53.230;6.614;2023-06-24T09:02:36;12.68;;;5.47;;
31692;SDS011;37436;53.230;6.614;2023-06-24T09:05:12;22.75;;;6.30;;
31692;SDS011;37436;53.230;6.614;2023-06-24T09:13:04;8.23;;;5.03;;
31692;SDS011;37436;53.230;6.614;2023-06-24T09:15:39;9.57;;;5.53;;
31692;SDS011;37436;53.230;6.614;2023-06-24T09:18:06;6.22;;;4.82;;
31692;SDS011;37436;53.230;6.614;2023-06-24T09:20:33;7.65;;;5.15;;
31692;SDS011;37436;53.230;6.614;2023-06-24T09:23:24;7.28;;;4.63;;
31692;SDS011;37436;53.230;6.614;2023-06-24T09:25:59;12.40;;;4.88;;
31692;SDS011;37436;53.230;6.614;2023-06-24T09:28:28;8.90;;;5.30;;
31692;SDS011;37436;53.230;6.614;2023-06-24T09:31:24;9.52;;;4.47;;
31692;SDS011;37436;53.230;6.614;2023-06-24T09:33:59;9.43;;;4.57;;
31692;SDS011;37436;53.230;6.614;2023-06-24T09:36:41;9.55;;;4.80;;
31692;SDS011;37436;53.230;6.614;2023-06-24T09:39:34;10.07;;;4.82;;
31692;SDS011;37436;53.230;6.614;2023-06-24T09:42:00;9.43;;;5.25;;
31692;SDS011;37436;53.230;6.614;2023-06-24T09:44:32;8.38;;;4.75;;
31692;SDS011;37436;53.230;6.614;2023-06-24T09:47:11;13.25;;;5.47;;
31692;SDS011;37436;53.230;6.614;2023-06-24T09:49:37;8.45;;;4.57;;
31692;SDS011;37436;53.230;6.614;2023-06-24T09:52:03;9.65;;;4.95;;
31692;SDS011;37436;53.230;6.614;2023-06-24T09:54:30;9.45;;;5.30;;
31692;SDS011;37436;53.230;6.614;2023-06-24T09:56:58;10.63;;;4.63;;
31692;SDS011;37436;53.230;6.614;2023-06-24T09:59:25;8.18;;;4.65;;
31692;SDS011;37436;53.230;6.614;2023-06-24T10:02:12;11.30;;;5.03;;
31692;SDS011;37436;53.230;6.614;2023-06-24T10:04:40;11.00;;;4.90;;
31692;SDS011;37436;53.230;6.614;2023-06-24T10:07:07;8.18;;;4.72;;
31692;SDS011;37436;53.230;6.614;2023-06-24T10:09:36;10.07;;;5.32;;
31692;SDS011;37436;53.230;6.614;2023-06-24T10:12:04;8.93;;;4.40;;
31692;SDS011;37436;53.230;6.614;2023-06-24T10:14:30;7.38;;;4.38;;
31692;SDS011;37436;53.230;6.614;2023-06-24T10:17:06;5.35;;;4.18;;
31692;SDS011;37436;53.230;6.614;2023-06-24T10:19:39;7.50;;;4.53;;
31692;SDS011;37436;53.230;6.614;2023-06-24T10:22:35;7.18;;;4.75;;
31692;SDS011;37436;53.230;6.614;2023-06-24T10:25:07;6.70;;;3.90;;
31692;SDS011;37436;53.230;6.614;2023-06-24T10:27:46;10.27;;;3.97;;
31692;SDS011;37436;53.230;6.614;2023-06-24T10:30:22;9.95;;;4.40;;
31692;SDS011;37436;53.230;6.614;2023-06-24T10:32:54;7.35;;;5.03;;
31692;SDS011;37436;53.230;6.614;2023-06-24T10:41:55;5.30;;;3.60;;
31692;SDS011;37436;53.230;6.614;2023-06-24T10:44:21;5.68;;;2.92;;
31692;SDS011;37436;53.230;6.614;2023-06-24T10:46:53;5.97;;;3.88;;
31692;SDS011;37436;53.230;6.614;2023-06-24T10:52:13;6.72;;;3.45;;
31692;SDS011;37436;53.230;6.614;2023-06-24T10:54:40;7.82;;;3.60;;
31692;SDS011;37436;53.230;6.614;2023-06-24T10:57:07;6.85;;;3.75;;
31692;SDS011;37436;53.230;6.614;2023-06-24T10:59:40;14.25;;;4.05;;
31692;SDS011;37436;53.230;6.614;2023-06-24T11:02:12;4.57;;;3.45;;
31692;SDS011;37436;53.230;6.614;2023-06-24T11:04:43;7.32;;;3.72;;
31692;SDS011;37436;53.230;6.614;2023-06-24T11:07:09;5.20;;;3.40;;
31692;SDS011;37436;53.230;6.614;2023-06-24T11:12:38;4.18;;;3.72;;
31692;SDS011;37436;53.230;6.614;2023-06-24T11:15:05;6.72;;;4.60;;
31692;SDS011;37436;53.230;6.614;2023-06-24T11:17:33;8.10;;;3.53;;
31692;SDS011;37436;53.230;6.614;2023-06-24T11:19:59;7.32;;;3.55;;
31692;SDS011;37436;53.230;6.614;2023-06-24T11:22:26;8.50;;;3.58;;
31692;SDS011;37436;53.230;6.614;2023-06-24T11:24:53;7.78;;;4.93;;
31692;SDS011;37436;53.230;6.614;2023-06-24T11:27:27;4.68;;;3.85;;
31692;SDS011;37436;53.230;6.614;2023-06-24T11:30:00;5.40;;;3.85;;
31692;SDS011;37436;53.230;6.614;2023-06-24T11:32:37;12.32;;;3.50;;
31692;SDS011;37436;53.230;6.614;2023-06-24T11:35:08;7.90;;;4.60;;
31692;SDS011;37436;53.230;6.614;2023-06-24T11:37:49;5.00;;;3.95;;
31692;SDS011;37436;53.230;6.614;2023-06-24T11:43:03;6.87;;;3.53;;
31692;SDS011;37436;53.230;6.614;2023-06-24T11:45:30;7.18;;;3.97;;
31692;SDS011;37436;53.230;6.614;2023-06-24T11:48:01;6.63;;;3.97;;
31692;SDS011;37436;53.230;6.614;2023-06-24T11:50:29;7.68;;;4.10;;
31692;SDS011;37436;53.230;6.614;2023-06-24T11:52:55;5.85;;;4.25;;
31692;SDS011;37436;53.230;6.614;2023-06-24T11:55:23;6.53;;;4.13;;
31692;SDS011;37436;53.230;6.614;2023-06-24T11:57:50;7.65;;;4.30;;
31692;SDS011;37436;53.230;6.614;2023-06-24T12:00:21;6.38;;;4.57;;
31692;SDS011;37436;53.230;6.614;2023-06-24T12:02:58;5.63;;;4.43;;
31692;SDS011;37436;53.230;6.614;2023-06-24T12:05:34;5.38;;;4.20;;
31692;SDS011;37436;53.230;6.614;2023-06-24T12:08:02;4.55;;;3.42;;
31692;SDS011;37436;53.230;6.614;2023-06-24T12:10:28;4.68;;;3.80;;
31692;SDS011;37436;53.230;6.614;2023-06-24T12:13:03;4.57;;;3.40;;
31692;SDS011;37436;53.230;6.614;2023-06-24T12:15:31;6.50;;;3.80;;
31692;SDS011;37436;53.230;6.614;2023-06-24T12:18:13;6.85;;;3.60;;
31692;SDS011;37436;53.230;6.614;2023-06-24T12:20:39;6.68;;;3.17;;
31692;SDS011;37436;53.230;6.614;2023-06-24T12:23:06;6.28;;;3.45;;
31692;SDS011;37436;53.230;6.614;2023-06-24T12:25:35;9.43;;;3.65;;
31692;SDS011;37436;53.230;6.614;2023-06-24T12:28:01;7.43;;;3.60;;
31692;SDS011;37436;53.230;6.614;2023-06-24T12:30:27;3.53;;;3.13;;
31692;SDS011;37436;53.230;6.614;2023-06-24T12:32:54;3.97;;;3.03;;
31692;SDS011;37436;53.230;6.614;2023-06-24T12:38:16;4.32;;;3.10;;
31692;SDS011;37436;53.230;6.614;2023-06-24T12:40:57;6.53;;;3.28;;
31692;SDS011;37436;53.230;6.614;2023-06-24T12:43:23;11.23;;;3.80;;
31692;SDS011;37436;53.230;6.614;2023-06-24T12:45:49;4.45;;;3.47;;
31692;SDS011;37436;53.230;6.614;2023-06-24T12:48:23;5.75;;;3.50;;
31692;SDS011;37436;53.230;6.614;2023-06-24T12:50:49;4.80;;;3.30;;
31692;SDS011;37436;53.230;6.614;2023-06-24T12:53:20;8.70;;;3.60;;
31692;SDS011;37436;53.230;6.614;2023-06-24T12:55:46;5.53;;;3.50;;
31692;SDS011;37436;53.230;6.614;2023-06-24T12:58:22;3.97;;;3.33;;
31692;SDS011;37436;53.230;6.614;2023-06-24T13:00:50;5.53;;;3.58;;
31692;SDS011;37436;53.230;6.614;2023-06-24T13:03:16;8.65;;;3.17;;
31692;SDS011;37436;53.230;6.614;2023-06-24T13:08:22;7.63;;;3.75;;
31692;SDS011;37436;53.230;6.614;2023-06-24T13:11:06;6.85;;;3.38;;
31692;SDS011;37436;53.230;6.614;2023-06-24T13:13:33;4.90;;;3.30;;
31692;SDS011;37436;53.230;6.614;2023-06-24T13:15:59;6.88;;;3.72;;
31692;SDS011;37436;53.230;6.614;2023-06-24T13:18:25;5.90;;;3.53;;
31692;SDS011;37436;53.230;6.614;2023-06-24T13:20:51;5.07;;;3.45;;
31692;SDS011;37436;53.230;6.614;2023-06-24T13:23:20;5.63;;;3.08;;
31692;SDS011;37436;53.230;6.614;2023-06-24T13:25:47;6.00;;;3.50;;
31692;SDS011;37436;53.230;6.614;2023-06-24T13:28:13;4.95;;;4.15;;
31692;SDS011;37436;53.230;6.614;2023-06-24T13:30:42;6.90;;;3.67;;
31692;SDS011;37436;53.230;6.614;2023-06-24T13:33:33;7.63;;;3.83;;
31692;SDS011;37436;53.230;6.614;2023-06-24T13:35:59;4.00;;;2.92;;
31692;SDS011;37436;53.230;6.614;2023-06-24T13:38:25;5.10;;;2.90;;
31692;SDS011;37436;53.230;6.614;2023-06-24T13:40:51;10.02;;;3.28;;
31692;SDS011;37436;53.230;6.614;2023-06-24T13:43:24;9.50;;;3.35;;
31692;SDS011;37436;53.230;6.614;2023-06-24T13:45:51;6.55;;;3.85;;
31692;SDS011;37436;53.230;6.614;2023-06-24T13:48:17;14.63;;;3.25;;
31692;SDS011;37436;53.230;6.614;2023-06-24T13:50:47;5.78;;;3.03;;
31692;SDS011;37436;53.230;6.614;2023-06-24T13:53:13;4.43;;;3.15;;
31692;SDS011;37436;53.230;6.614;2023-06-24T13:55:39;3.67;;;2.85;;
31692;SDS011;37436;53.230;6.614;2023-06-24T13:58:11;5.30;;;2.97;;
31692;SDS011;37436;53.230;6.614;2023-06-24T14:00:58;4.13;;;2.50;;
31692;SDS011;37436;53.230;6.614;2023-06-24T14:03:35;4.68;;;2.42;;
31692;SDS011;37436;53.230;6.614;2023-06-24T14:06:02;3.17;;;2.70;;
31692;SDS011;37436;53.230;6.614;2023-06-24T14:08:47;4.97;;;3.17;;
31692;SDS011;37436;53.230;6.614;2023-06-24T14:11:14;3.28;;;2.40;;
31692;SDS011;37436;53.230;6.614;2023-06-24T14:14:00;6.97;;;2.67;;
31692;SDS011;37436;53.230;6.614;2023-06-24T14:16:29;7.50;;;3.40;;
31692;SDS011;37436;53.230;6.614;2023-06-24T14:21:44;4.50;;;2.73;;
31692;SDS011;37436;53.230;6.614;2023-06-24T14:24:32;4.82;;;3.63;;
31692;SDS011;37436;53.230;6.614;2023-06-24T14:26:58;5.05;;;3.63;;
31692;SDS011;37436;53.230;6.614;2023-06-24T14:29:28;6.43;;;3.88;;
31692;SDS011;37436;53.230;6.614;2023-06-24T14:35:01;6.22;;;4.35;;
31692;SDS011;37436;53.230;6.614;2023-06-24T14:37:30;10.75;;;4.15;;
31692;SDS011;37436;53.230;6.614;2023-06-24T14:46:22;9.57;;;4.30;;
31692;SDS011;37436;53.230;6.614;2023-06-24T14:48:48;10.18;;;4.68;;
31692;SDS011;37436;53.230;6.614;2023-06-24T14:51:15;9.82;;;4.70;;
31692;SDS011;37436;53.230;6.614;2023-06-24T14:54:04;7.53;;;4.72;;
31692;SDS011;37436;53.230;6.614;2023-06-24T14:59:45;9.43;;;4.15;;
31692;SDS011;37436;53.230;6.614;2023-06-24T15:02:11;10.63;;;4.57;;
31692;SDS011;37436;53.230;6.614;2023-06-24T15:04:38;8.02;;;3.63;;
31692;SDS011;37436;53.230;6.614;2023-06-24T15:07:12;4.97;;;3.85;;
31692;SDS011;37436;53.230;6.614;2023-06-24T15:09:41;6.05;;;4.07;;
31692;SDS011;37436;53.230;6.614;2023-06-24T15:12:23;5.78;;;3.20;;
31692;SDS011;37436;53.230;6.614;2023-06-24T15:14:50;7.60;;;4.03;;
31692;SDS011;37436;53.230;6.614;2023-06-24T15:17:16;5.13;;;3.20;;
31692;SDS011;37436;53.230;6.614;2023-06-24T15:19:53;6.38;;;3.75;;
31692;SDS011;37436;53.230;6.614;2023-06-24T15:22:19;8.13;;;3.65;;
31692;SDS011;37436;53.230;6.614;2023-06-24T15:24:46;6.47;;;4.00;;
31692;SDS011;37436;53.230;6.614;2023-06-24T15:27:15;5.00;;;3.60;;
31692;SDS011;37436;53.230;6.614;2023-06-24T15:29:42;5.88;;;3.38;;
31692;SDS011;37436;53.230;6.614;2023-06-24T15:32:09;7.22;;;3.85;;
31692;SDS011;37436;53.230;6.614;2023-06-24T15:34:35;5.15;;;3.78;;
31692;SDS011;37436;53.230;6.614;2023-06-24T15:37:01;5.07;;;3.75;;
31692;SDS011;37436;53.230;6.614;2023-06-24T15:39:30;5.53;;;3.60;;
31692;SDS011;37436;53.230;6.614;2023-06-24T15:41:59;8.85;;;3.45;;
31692;SDS011;37436;53.230;6.614;2023-06-24T15:44:26;3.60;;;2.95;;
31692;SDS011;37436;53.230;6.614;2023-06-24T15:46:52;4.85;;;3.33;;